createdAt,value
2018-12-06T00:00:05.676Z,0.95
2018-12-06T00:02:32.281Z,1.65
2018-12-06T00:04:58.825Z,0.82
2018-12-06T00:07:25.254Z,1.07
2018-12-06T00:09:51.697Z,0.95
2018-12-06T00:12:18.225Z,0.98
2018-12-06T00:14:44.673Z,0.90
2018-12-06T00:17:11.183Z,0.90
2018-12-06T00:19:37.734Z,0.88
2018-12-06T00:22:04.150Z,0.80
2018-12-06T00:24:30.725Z,1.40
2018-12-06T00:26:57.217Z,0.93
2018-12-06T00:29:23.673Z,0.90
2018-12-06T00:31:50.241Z,0.78
2018-12-06T00:34:17.368Z,0.80
2018-12-06T00:36:43.882Z,0.80
2018-12-06T00:39:10.400Z,1.00
2018-12-06T00:41:36.857Z,1.30
2018-12-06T00:44:03.502Z,1.57
2018-12-06T00:46:30.142Z,0.98
2018-12-06T00:48:56.642Z,1.07
2018-12-06T00:51:23.101Z,0.98
2018-12-06T00:53:49.608Z,0.70
2018-12-06T00:56:16.165Z,0.82
2018-12-06T00:58:42.593Z,0.80
2018-12-06T01:01:09.136Z,0.82
2018-12-06T01:03:35.650Z,0.98
2018-12-06T01:06:02.110Z,0.98
2018-12-06T01:08:28.513Z,0.82
2018-12-06T01:10:54.960Z,0.88
2018-12-06T01:13:21.386Z,0.60
2018-12-06T01:15:47.934Z,0.93
2018-12-06T01:18:14.370Z,0.85
2018-12-06T01:20:40.897Z,0.78
2018-12-06T01:23:07.317Z,0.88
2018-12-06T01:25:33.777Z,0.70
2018-12-06T01:28:00.401Z,0.93
2018-12-06T01:30:26.822Z,0.88
2018-12-06T01:32:53.277Z,0.85
2018-12-06T01:35:19.786Z,0.90
2018-12-06T01:37:46.229Z,0.60
2018-12-06T01:40:12.653Z,2.00
2018-12-06T01:42:39.098Z,0.60
2018-12-06T01:46:35.425Z,0.95
2018-12-06T01:49:01.986Z,0.60
2018-12-06T01:51:28.494Z,2.25
2018-12-06T01:53:55.037Z,1.12
2018-12-06T01:56:21.453Z,0.70
2018-12-06T01:58:47.909Z,0.90
2018-12-06T02:01:14.422Z,0.82
2018-12-06T02:03:40.873Z,0.85
2018-12-06T02:06:07.301Z,1.77
2018-12-06T02:08:33.744Z,0.50
2018-12-06T02:11:00.361Z,0.65
2018-12-06T02:13:26.809Z,1.00
2018-12-06T02:15:53.226Z,0.50
2018-12-06T02:18:19.680Z,0.93
2018-12-06T02:20:46.091Z,0.60
2018-12-06T02:23:12.529Z,0.70
2018-12-06T02:25:39.103Z,1.00
2018-12-06T02:28:05.706Z,1.20
2018-12-06T02:30:32.166Z,0.68
2018-12-06T02:32:58.760Z,0.60
2018-12-06T02:35:25.323Z,0.72
2018-12-06T02:37:51.829Z,0.90
2018-12-06T02:40:18.410Z,0.85
2018-12-06T02:42:45.008Z,0.57
2018-12-06T02:45:12.859Z,0.90
2018-12-06T02:47:39.619Z,0.72
2018-12-06T02:50:06.194Z,1.25
2018-12-06T02:52:32.683Z,0.70
2018-12-06T02:54:59.133Z,0.80
2018-12-06T02:57:25.664Z,2.47
2018-12-06T02:59:52.113Z,1.32
2018-12-06T03:02:18.625Z,0.93
2018-12-06T03:04:45.084Z,0.98
2018-12-06T03:07:11.593Z,1.02
2018-12-06T03:09:38.019Z,0.60
2018-12-06T03:12:04.557Z,0.90
2018-12-06T03:14:31.006Z,0.93
2018-12-06T03:16:57.525Z,0.75
2018-12-06T03:19:24.181Z,0.98
2018-12-06T03:21:50.699Z,0.70
2018-12-06T03:24:17.137Z,0.72
2018-12-06T03:26:43.581Z,1.20
2018-12-06T03:29:10.157Z,0.88
2018-12-06T03:31:37.447Z,0.95
2018-12-06T03:34:03.985Z,0.60
2018-12-06T03:36:30.433Z,1.40
2018-12-06T03:38:56.857Z,0.88
2018-12-06T03:41:23.305Z,0.80
2018-12-06T03:45:19.620Z,0.60
2018-12-06T03:47:46.146Z,0.60
2018-12-06T03:50:12.709Z,0.75
2018-12-06T03:52:39.241Z,0.60
2018-12-06T03:55:05.906Z,0.62
2018-12-06T03:57:32.419Z,0.70
2018-12-06T03:59:58.978Z,0.70
2018-12-06T04:02:25.561Z,0.65
2018-12-06T04:04:52.003Z,0.98
2018-12-06T04:07:18.562Z,0.98
2018-12-06T04:09:45.077Z,0.72
2018-12-06T04:12:11.522Z,1.25
2018-12-06T04:14:37.947Z,0.72
2018-12-06T04:17:04.511Z,0.70
2018-12-06T04:19:31.109Z,0.62
2018-12-06T04:21:57.561Z,0.60
2018-12-06T04:24:24.088Z,0.60
2018-12-06T04:26:50.638Z,0.60
2018-12-06T04:29:17.046Z,1.65
2018-12-06T04:31:43.498Z,0.60
2018-12-06T04:34:10.010Z,0.53
2018-12-06T04:36:36.470Z,0.70
2018-12-06T04:39:05.725Z,0.62
2018-12-06T04:41:32.205Z,0.70
2018-12-06T04:43:58.605Z,0.72
2018-12-06T04:46:25.874Z,0.60
2018-12-06T04:48:54.440Z,0.85
2018-12-06T04:51:21.932Z,0.70
2018-12-06T04:53:50.665Z,0.80
2018-12-06T04:56:17.145Z,0.45
2018-12-06T04:58:45.850Z,0.45
2018-12-06T05:01:13.175Z,0.82
2018-12-06T05:03:42.026Z,0.50
2018-12-06T05:06:14.189Z,0.50
2018-12-06T05:08:42.738Z,0.60
2018-12-06T05:11:15.677Z,0.57
2018-12-06T05:13:43.362Z,0.70
2018-12-06T05:16:16.553Z,0.70
2018-12-06T05:18:44.855Z,0.50
2018-12-06T05:21:15.814Z,0.40
2018-12-06T05:23:45.141Z,0.72
2018-12-06T05:26:14.478Z,0.50
2018-12-06T05:28:41.609Z,0.47
2018-12-06T05:31:09.601Z,1.05
2018-12-06T05:33:36.114Z,1.45
2018-12-06T05:36:02.579Z,0.90
2018-12-06T05:38:29.084Z,0.62
2018-12-06T05:40:55.637Z,1.25
2018-12-06T05:43:22.033Z,0.57
2018-12-06T05:45:48.610Z,0.90
2018-12-06T05:48:15.208Z,2.75
2018-12-06T05:50:41.670Z,1.37
2018-12-06T05:53:08.109Z,0.75
2018-12-06T05:55:34.657Z,0.80
2018-12-06T05:58:01.255Z,0.90
2018-12-06T06:00:27.930Z,0.82
2018-12-06T06:02:54.417Z,0.60
2018-12-06T06:05:20.997Z,1.12
2018-12-06T06:07:47.499Z,1.00
2018-12-06T06:10:13.913Z,1.75
2018-12-06T06:12:40.462Z,1.32
2018-12-06T06:15:07.041Z,0.78
2018-12-06T06:17:33.538Z,1.92
2018-12-06T06:19:59.997Z,0.90
2018-12-06T06:22:26.641Z,1.07
2018-12-06T06:24:53.277Z,0.80
2018-12-06T06:27:19.909Z,1.62
2018-12-06T06:29:46.413Z,1.70
2018-12-06T06:32:12.861Z,0.98
2018-12-06T06:34:39.385Z,2.25
2018-12-06T06:37:05.942Z,2.05
2018-12-06T06:39:32.363Z,1.02
2018-12-06T06:41:59.609Z,2.05
2018-12-06T06:44:27.693Z,0.60
2018-12-06T06:46:59.426Z,1.15
2018-12-06T06:49:25.961Z,1.40
2018-12-06T06:51:54.705Z,0.98
2018-12-06T06:54:22.186Z,0.70
2018-12-06T06:56:50.565Z,0.50
2018-12-06T06:59:25.840Z,1.92
2018-12-06T07:01:49.197Z,0.82
2018-12-06T07:04:16.478Z,0.93
2018-12-06T07:06:44.633Z,0.78
2018-12-06T07:09:13.177Z,0.90
2018-12-06T07:11:40.953Z,1.22
2018-12-06T07:14:07.414Z,1.25
2018-12-06T07:19:55.681Z,0.80
2018-12-06T07:22:22.113Z,0.85
2018-12-06T07:24:48.534Z,0.88
2018-12-06T07:27:17.335Z,1.45
2018-12-06T07:29:44.521Z,1.50
2018-12-06T07:32:12.385Z,1.77
2018-12-06T07:34:40.885Z,1.55
2018-12-06T07:37:12.657Z,1.30
2018-12-06T07:39:39.121Z,1.05
2018-12-06T07:42:05.535Z,0.85
2018-12-06T07:44:33.878Z,1.92
2018-12-06T07:47:02.337Z,0.98
2018-12-06T07:49:32.830Z,1.12
2018-12-06T07:52:02.223Z,1.15
2018-12-06T07:54:30.885Z,1.05
2018-12-06T07:56:58.459Z,1.67
2018-12-06T07:59:25.558Z,1.72
2018-12-06T08:01:52.047Z,1.17
2018-12-06T08:04:19.126Z,1.10
2018-12-06T08:06:45.857Z,2.12
2018-12-06T08:09:12.394Z,1.35
2018-12-06T08:11:38.910Z,1.45
2018-12-06T08:14:06.757Z,2.00
2018-12-06T08:16:33.746Z,1.70
2018-12-06T08:19:00.270Z,1.77
2018-12-06T08:21:26.678Z,1.15
2018-12-06T08:23:53.111Z,1.32
2018-12-06T08:26:19.554Z,2.08
2018-12-06T08:28:46.014Z,3.55
2018-12-06T08:31:12.536Z,1.52
2018-12-06T08:33:39.043Z,2.37
2018-12-06T08:36:05.497Z,1.80
2018-12-06T08:38:31.922Z,2.58
2018-12-06T08:40:58.366Z,2.37
2018-12-06T08:43:24.881Z,1.98
2018-12-06T08:45:51.329Z,1.80
2018-12-06T08:48:17.749Z,1.15
2018-12-06T08:50:44.421Z,1.00
2018-12-06T08:53:10.920Z,0.90
2018-12-06T08:55:37.366Z,1.80
2018-12-06T08:58:03.785Z,1.37
2018-12-06T09:00:30.238Z,1.32
2018-12-06T09:02:56.747Z,2.05
2018-12-06T09:05:23.202Z,0.95
2018-12-06T09:07:49.618Z,1.95
2018-12-06T09:10:16.065Z,3.85
2018-12-06T09:12:42.612Z,1.02
2018-12-06T09:15:09.122Z,1.50
2018-12-06T09:17:35.797Z,1.25
2018-12-06T09:20:02.873Z,2.05
2018-12-06T09:22:29.362Z,0.95
2018-12-06T09:24:56.093Z,1.60
2018-12-06T09:27:22.538Z,1.85
2018-12-06T09:29:49.044Z,5.17
2018-12-06T09:32:15.593Z,2.12
2018-12-06T09:34:42.005Z,1.30
2018-12-06T09:37:08.469Z,2.22
2018-12-06T09:39:34.883Z,2.02
2018-12-06T09:42:01.430Z,1.92
2018-12-06T09:44:27.950Z,1.55
2018-12-06T09:46:54.390Z,2.55
2018-12-06T09:49:20.815Z,1.20
2018-12-06T09:51:47.257Z,2.15
2018-12-06T09:54:13.685Z,1.60
2018-12-06T09:56:40.141Z,1.37
2018-12-06T09:59:06.770Z,2.50
2018-12-06T10:01:33.202Z,2.08
2018-12-06T10:03:59.733Z,4.40
2018-12-06T10:06:26.257Z,4.67
2018-12-06T10:08:52.801Z,3.05
2018-12-06T10:11:19.237Z,4.25
2018-12-06T10:13:45.661Z,3.37
2018-12-06T10:16:12.097Z,4.00
2018-12-06T10:18:38.518Z,2.55
2018-12-06T10:21:04.951Z,3.05
2018-12-06T10:23:31.397Z,2.90
2018-12-06T10:25:57.828Z,3.62
2018-12-06T10:28:24.372Z,3.95
2018-12-06T10:37:36.745Z,2.87
2018-12-06T10:40:03.431Z,4.15
2018-12-06T10:42:29.967Z,3.15
2018-12-06T10:44:56.425Z,3.22
2018-12-06T10:47:22.906Z,3.77
2018-12-06T10:49:49.387Z,4.17
2018-12-06T10:52:15.918Z,10.05
2018-12-06T10:54:42.359Z,4.30
2018-12-06T10:57:08.781Z,2.55
2018-12-06T10:59:35.233Z,2.60
2018-12-06T11:02:01.743Z,4.60
2018-12-06T11:04:28.192Z,2.25
2018-12-06T11:06:54.717Z,5.00
2018-12-06T11:09:21.263Z,3.70
2018-12-06T11:11:47.790Z,2.77
2018-12-06T11:14:14.376Z,3.77
2018-12-06T11:16:40.972Z,2.58
2018-12-06T11:19:07.504Z,2.20
2018-12-06T11:21:34.025Z,3.58
2018-12-06T11:24:00.445Z,3.02
2018-12-06T11:26:27.001Z,3.52
2018-12-06T11:28:53.423Z,2.70
2018-12-06T11:31:19.865Z,2.95
2018-12-06T11:33:46.293Z,3.40
2018-12-06T11:36:12.877Z,3.87
2018-12-06T11:38:39.453Z,2.33
2018-12-06T11:41:05.920Z,2.83
2018-12-06T11:43:32.525Z,4.37
2018-12-06T11:45:58.997Z,3.58
2018-12-06T11:48:27.042Z,3.40
2018-12-06T11:50:53.897Z,5.03
2018-12-06T11:53:20.311Z,4.05
2018-12-06T11:55:46.766Z,4.62
2018-12-06T11:58:13.286Z,2.85
2018-12-06T12:00:39.853Z,3.45
2018-12-06T12:03:06.467Z,2.42
2018-12-06T12:05:33.114Z,4.33
2018-12-06T12:07:59.537Z,4.83
2018-12-06T12:10:25.950Z,2.98
2018-12-06T12:12:52.417Z,3.55
2018-12-06T12:15:19.005Z,3.08
2018-12-06T12:17:45.466Z,4.60
2018-12-06T12:20:11.993Z,3.35
2018-12-06T12:22:38.541Z,3.15
2018-12-06T12:25:05.315Z,3.25
2018-12-06T12:27:31.929Z,3.35
2018-12-06T12:29:58.433Z,15.45
2018-12-06T12:32:24.881Z,2.75
2018-12-06T12:34:51.297Z,3.08
2018-12-06T12:37:17.741Z,4.92
2018-12-06T12:39:44.155Z,3.67
2018-12-06T12:42:10.721Z,7.62
2018-12-06T12:44:37.120Z,2.85
2018-12-06T12:47:03.587Z,3.17
2018-12-06T12:49:30.090Z,4.47
2018-12-06T12:51:56.661Z,4.05
2018-12-06T12:54:23.070Z,2.67
2018-12-06T12:56:49.509Z,2.33
2018-12-06T12:59:15.930Z,5.12
2018-12-06T13:01:42.380Z,3.98
2018-12-06T13:04:08.994Z,4.30
2018-12-06T13:06:35.429Z,4.55
2018-12-06T13:09:02.009Z,2.45
2018-12-06T13:11:28.622Z,3.45
2018-12-06T13:13:55.165Z,4.03
2018-12-06T13:16:21.575Z,2.47
2018-12-06T13:18:48.000Z,1.95
2018-12-06T13:21:14.659Z,2.37
2018-12-06T13:23:41.101Z,1.85
2018-12-06T13:26:07.625Z,3.45
2018-12-06T13:28:34.173Z,3.12
2018-12-06T13:31:00.825Z,4.92
2018-12-06T13:33:27.461Z,2.62
2018-12-06T13:35:53.961Z,3.50
2018-12-06T13:38:20.432Z,2.62
2018-12-06T13:40:46.928Z,2.45
2018-12-06T13:43:13.385Z,2.98
2018-12-06T13:45:39.902Z,2.50
2018-12-06T13:48:06.569Z,3.47
2018-12-06T13:50:33.063Z,1.70
2018-12-06T13:52:59.619Z,2.08
2018-12-06T13:55:26.125Z,1.98
2018-12-06T13:57:52.582Z,2.70
2018-12-06T14:00:19.014Z,3.15
2018-12-06T14:02:45.658Z,1.42
2018-12-06T14:07:38.238Z,2.65
2018-12-06T14:10:04.953Z,2.83
2018-12-06T14:12:31.369Z,2.02
2018-12-06T14:14:57.923Z,3.67
2018-12-06T14:17:24.434Z,4.45
2018-12-06T14:19:50.915Z,3.45
2018-12-06T14:22:17.492Z,2.52
2018-12-06T14:24:43.957Z,1.85
2018-12-06T14:27:10.380Z,4.03
2018-12-06T14:29:36.936Z,2.12
2018-12-06T14:32:03.549Z,1.57
2018-12-06T14:34:30.097Z,2.55
2018-12-06T14:37:02.088Z,1.90
2018-12-06T14:39:25.729Z,1.67
2018-12-06T14:41:52.137Z,1.35
2018-12-06T14:44:18.601Z,2.12
2018-12-06T14:46:45.037Z,2.47
2018-12-06T14:49:11.561Z,1.25
2018-12-06T14:51:37.981Z,3.37
2018-12-06T14:54:04.541Z,2.02
2018-12-06T14:56:31.149Z,1.52
2018-12-06T14:58:57.594Z,1.82
2018-12-06T15:01:24.241Z,2.10
2018-12-06T15:03:50.768Z,1.77
2018-12-06T15:06:17.186Z,1.62
2018-12-06T15:08:43.741Z,1.32
2018-12-06T15:11:10.169Z,2.22
2018-12-06T15:13:36.618Z,1.35
2018-12-06T15:16:03.256Z,1.98
2018-12-06T15:18:29.865Z,2.15
2018-12-06T15:20:56.333Z,1.95
2018-12-06T15:23:22.823Z,2.85
2018-12-06T15:25:49.387Z,2.00
2018-12-06T15:37:59.985Z,0.60
2018-12-06T15:40:26.458Z,4.47
2018-12-06T15:42:54.078Z,2.65
2018-12-06T17:16:56.477Z,4.17
2018-12-06T17:19:22.993Z,3.15
2018-12-06T17:21:49.441Z,2.80
2018-12-06T17:24:15.857Z,3.12
2018-12-06T17:26:42.305Z,4.40
2018-12-06T17:29:08.722Z,4.47
2018-12-06T17:31:35.153Z,4.00
2018-12-06T17:34:01.715Z,3.65
2018-12-06T17:36:28.329Z,4.42
2018-12-06T17:38:54.809Z,3.45
2018-12-06T17:41:21.306Z,4.78
2018-12-06T17:43:47.737Z,1.85
2018-12-06T17:46:14.161Z,2.87
2018-12-06T17:48:40.657Z,5.17
2018-12-06T17:51:07.173Z,3.45
2018-12-06T17:53:33.789Z,4.10
2018-12-06T17:56:00.429Z,4.47
2018-12-06T17:58:27.053Z,2.30
2018-12-06T18:00:53.988Z,3.08
2018-12-06T18:03:20.541Z,4.85
2018-12-06T18:05:46.949Z,3.47
2018-12-06T18:08:13.405Z,2.72
2018-12-06T18:10:40.015Z,2.12
2018-12-06T18:13:06.470Z,1.85
2018-12-06T18:15:32.873Z,3.67
2018-12-06T18:17:59.354Z,2.55
2018-12-06T18:20:25.846Z,4.80
2018-12-06T18:22:52.388Z,2.40
2018-12-06T18:25:18.837Z,2.70
2018-12-06T18:27:45.293Z,2.08
2018-12-06T18:30:11.815Z,3.08
2018-12-06T18:32:38.426Z,2.20
2018-12-06T18:35:05.023Z,4.45
2018-12-06T18:37:31.507Z,2.67
2018-12-06T18:39:57.963Z,2.45
2018-12-06T18:42:24.561Z,2.25
2018-12-06T18:44:51.010Z,3.83
2018-12-06T18:47:17.537Z,3.62
2018-12-06T18:49:43.993Z,3.30
2018-12-06T18:52:10.501Z,4.75
2018-12-06T18:54:36.958Z,4.03
2018-12-06T18:57:03.589Z,3.58
2018-12-06T18:59:30.025Z,5.03
2018-12-06T19:01:56.437Z,4.90
2018-12-06T19:04:22.894Z,4.05
2018-12-06T19:06:49.521Z,4.20
2018-12-06T19:09:16.206Z,3.95
2018-12-06T19:11:42.692Z,3.92
2018-12-06T19:14:09.254Z,6.50
2018-12-06T19:16:35.747Z,8.95
2018-12-06T19:19:02.306Z,8.45
2018-12-06T19:21:28.745Z,9.63
2018-12-06T19:23:55.257Z,10.88
2018-12-06T19:26:21.714Z,9.83
2018-12-06T19:28:48.337Z,9.65
2018-12-06T19:31:14.777Z,9.90
2018-12-06T19:33:41.190Z,11.85
2018-12-06T19:36:07.650Z,10.13
2018-12-06T19:38:34.158Z,10.08
2018-12-06T19:41:00.625Z,8.23
2018-12-06T19:43:27.126Z,9.85
2018-12-06T19:45:53.681Z,8.78
2018-12-06T19:48:20.190Z,12.28
2018-12-06T19:50:46.774Z,10.90
2018-12-06T19:53:13.257Z,10.15
2018-12-06T19:55:39.716Z,10.70
2018-12-06T19:58:06.137Z,8.88
2018-12-06T20:00:32.590Z,9.08
2018-12-06T20:02:59.110Z,12.15
2018-12-06T20:05:25.544Z,12.00
2018-12-06T20:07:52.101Z,10.30
2018-12-06T20:10:18.703Z,12.98
2018-12-06T20:12:45.258Z,11.60
2018-12-06T20:15:11.897Z,13.48
2018-12-06T20:17:38.334Z,11.20
2018-12-06T20:20:05.625Z,13.20
2018-12-06T20:22:32.237Z,10.00
2018-12-06T20:24:58.857Z,11.18
2018-12-06T20:27:25.390Z,14.78
2018-12-06T20:29:51.994Z,14.00
2018-12-06T20:32:18.458Z,14.85
2018-12-06T20:34:44.873Z,12.55
2018-12-06T20:37:11.326Z,14.70
2018-12-06T20:39:37.941Z,12.58
2018-12-06T20:42:04.423Z,13.22
2018-12-06T20:44:31.021Z,13.30
2018-12-06T20:46:57.449Z,12.82
2018-12-06T20:49:23.890Z,7.47
2018-12-06T20:51:50.310Z,8.00
2018-12-06T20:54:16.785Z,7.95
2018-12-06T20:56:43.380Z,6.67
2018-12-06T20:59:09.943Z,7.30
2018-12-06T21:01:36.555Z,8.08
2018-12-06T21:04:03.114Z,5.45
2018-12-06T21:06:29.618Z,5.10
2018-12-06T21:08:56.174Z,6.30
2018-12-06T21:11:22.911Z,4.95
2018-12-06T21:13:49.445Z,3.85
2018-12-06T21:16:16.000Z,5.33
2018-12-06T21:18:42.621Z,2.77
2018-12-06T21:21:09.137Z,4.50
2018-12-06T21:23:35.585Z,3.27
2018-12-06T21:26:02.013Z,4.78
2018-12-06T21:28:28.566Z,4.42
2018-12-06T21:30:55.076Z,5.47
2018-12-06T21:33:21.534Z,4.20
2018-12-06T21:35:48.146Z,5.00
2018-12-06T21:38:14.565Z,3.85
2018-12-06T21:40:41.037Z,3.37
2018-12-06T21:43:07.666Z,3.40
2018-12-06T21:45:34.105Z,3.12
2018-12-06T21:48:00.613Z,4.03
2018-12-06T21:50:27.065Z,3.42
2018-12-06T21:52:53.485Z,2.98
2018-12-06T21:55:19.929Z,3.87
2018-12-06T21:57:46.333Z,5.30
2018-12-06T22:00:12.938Z,3.98
2018-12-06T22:02:39.417Z,2.87
2018-12-06T22:05:05.992Z,3.90
2018-12-06T22:07:32.594Z,3.55
2018-12-06T22:09:59.137Z,3.83
2018-12-06T22:12:25.549Z,3.02
2018-12-06T22:14:52.010Z,3.33
2018-12-06T22:17:18.418Z,4.53
2018-12-06T22:19:44.877Z,4.87
2018-12-06T22:22:11.548Z,3.83
2018-12-06T22:24:38.049Z,5.53
2018-12-06T22:27:04.558Z,3.20
2018-12-06T22:29:31.029Z,3.05
2018-12-06T22:31:57.526Z,3.50
2018-12-06T22:34:24.002Z,3.15
2018-12-06T22:36:50.497Z,3.47
2018-12-06T22:39:16.921Z,3.70
2018-12-06T22:41:43.483Z,3.95
2018-12-06T22:44:10.014Z,3.10
2018-12-06T22:46:36.669Z,3.27
2018-12-06T22:49:03.282Z,2.80
2018-12-06T22:51:29.717Z,4.05
2018-12-06T22:53:56.137Z,2.92
2018-12-06T22:56:22.694Z,3.12
2018-12-06T22:58:49.222Z,2.90
2018-12-06T23:01:15.672Z,4.50
2018-12-06T23:03:42.275Z,3.70
2018-12-06T23:06:08.725Z,2.22
2018-12-06T23:08:35.142Z,3.52
2018-12-06T23:11:01.827Z,2.30
2018-12-06T23:13:28.404Z,3.87
2018-12-06T23:15:54.954Z,2.62
2018-12-06T23:18:21.378Z,2.33
2018-12-06T23:20:47.904Z,2.50
2018-12-06T23:23:14.362Z,3.75
2018-12-06T23:25:40.809Z,3.42
2018-12-06T23:28:07.322Z,3.15
2018-12-06T23:30:33.889Z,3.37
2018-12-06T23:33:00.388Z,2.67
2018-12-06T23:35:26.841Z,4.40
2018-12-06T23:37:53.250Z,4.90
2018-12-06T23:40:19.717Z,2.90
2018-12-06T23:42:46.233Z,2.70
2018-12-06T23:45:12.777Z,2.50
2018-12-06T23:47:39.216Z,3.25
2018-12-06T23:50:05.934Z,2.62
2018-12-06T23:52:32.373Z,2.47
2018-12-06T23:54:58.917Z,3.33
2018-12-06T23:57:25.341Z,2.98
2018-12-06T23:59:51.766Z,3.10
